Time;durP1;ratioP1;P1;durP2;ratioP2;P2;SDS_P1;SDS_P2;PMS_P1;PMS_P2;Temp;Humidity;BMP_temperature;BMP_pressure;BME280_temperature;BME280_humidity;BME280_pressure;Samples;Min_cycle;Max_cycle;Signal;HPM_P1;HPM_P2
2023/06/07 00:01:15;;;;;;;;;;;;;;;21.67;100.00;97920.75;5046425;28;19925;-73
2023/06/07 00:03:41;;;;;;;;;;;;;;;21.72;100.00;97920.56;5044476;28;20017;-73
2023/06/07 00:06:09;;;;;;;;;;;;;;;21.73;100.00;97930.28;5045245;28;19939;-73
2023/06/07 00:08:37;;;;;;;;;;;;;;;21.60;100.00;97922.44;5047059;28;19925;-72
2023/06/07 00:11:03;;;;;;;;;;;;;;;21.57;100.00;97923.13;5047535;28;19925;-72
2023/06/07 00:13:30;;;;;;;;;;;;;;;21.63;100.00;97927.22;5036337;28;19925;-72
2023/06/07 00:15:56;;;;;;;;;;;;;;;21.66;100.00;97923.81;5036385;28;19933;-72
2023/06/07 00:18:23;;;;;;;;;;;;;;;21.69;100.00;97928.59;5036332;28;20389;-72
2023/06/07 00:20:50;;;;;;;;;;;;;;;21.74;100.00;97925.66;5045682;28;19925;-72
2023/06/07 00:23:16;;;;;;;;;;;;;;;21.76;100.00;97921.47;5045799;28;19936;-72
2023/06/07 00:25:44;;;;;;;;;;;;;;;21.73;100.00;97919.41;5043820;28;19926;-72
2023/06/07 00:28:10;;;;;;;;;;;;;;;21.78;100.00;97921.16;5044585;28;19925;-72
2023/06/07 00:30:37;;;;;;;;;;;;;;;21.74;100.00;97921.03;5047262;28;19928;-72
2023/06/07 00:33:03;;;;;;;;;;;;;;;21.73;100.00;97915.91;5047266;28;19924;-72
2023/06/07 00:35:30;;;;;;;;;;;;;;;21.69;100.00;97918.53;5035707;28;19935;-72
2023/06/07 00:37:56;;;;;;;;;;;;;;;21.66;100.00;97911.03;5035704;28;19921;-72
2023/06/07 00:40:22;;;;;;;;;;;;;;;21.65;100.00;97914.88;5035562;28;19925;-72
2023/06/07 00:42:50;;;;;;;;;;;;;;;21.70;100.00;97920.09;5035568;28;19929;-72
2023/06/07 00:45:17;;;;;;;;;;;;;;;21.61;100.00;97908.50;5034795;28;19960;-73
2023/06/07 00:47:43;;;;;;;;;;;;;;;21.53;100.00;97910.19;5035518;28;19933;-72
2023/06/07 00:50:11;;;;;;;;;;;;;;;21.64;100.00;97912.47;5040116;28;19925;-72
2023/06/07 00:52:38;;;;;;;;;;;;;;;21.56;100.00;97908.72;5046981;28;19926;-72
2023/06/07 00:55:05;;;;;;;;;;;;;;;21.54;100.00;97910.97;5046803;28;19925;-72
2023/06/07 00:57:33;;;;;;;;;;;;;;;21.54;100.00;97903.63;5043413;28;19926;-72
2023/06/07 01:00:01;;;;;;;;;;;;;;;21.46;100.00;97904.50;5043525;28;19926;-72
2023/06/07 01:02:29;;;;;;;;;;;;;;;21.36;100.00;97898.66;5046346;28;19922;-72
2023/06/07 01:04:56;;;;;;;;;;;;;;;21.07;100.00;97902.25;5045862;28;19925;-72
2023/06/07 01:07:24;;;;;;;;;;;;;;;21.05;100.00;97892.81;5044134;28;19925;-72
2023/06/07 01:09:51;;;;;;;;;;;;;;;21.09;100.00;97900.03;5043314;28;19926;-72
2023/06/07 01:12:19;;;;;;;;;;;;;;;21.13;100.00;97898.25;5044965;28;19925;-72
2023/06/07 01:14:46;;;;;;;;;;;;;;;21.22;100.00;97898.97;5046490;28;19936;-72
2023/06/07 01:17:14;;;;;;;;;;;;;;;21.23;100.00;97903.25;5045315;28;19949;-73
2023/06/07 01:19:43;;;;;;;;;;;;;;;21.10;100.00;97901.63;5043620;28;19936;-73
2023/06/07 01:22:10;;;;;;;;;;;;;;;21.15;100.00;97898.69;5046476;28;19926;-73
2023/06/07 01:24:42;;;;;;;;;;;;;;;20.97;100.00;97902.63;5046288;28;19925;-73
2023/06/07 01:27:10;;;;;;;;;;;;;;;20.84;100.00;97906.38;5045835;28;20479;-73
2023/06/07 01:29:36;;;;;;;;;;;;;;;20.81;100.00;97905.13;5043107;28;19949;-73
2023/06/07 01:32:04;;;;;;;;;;;;;;;20.62;100.00;97896.63;5043006;28;19925;-73
2023/06/07 01:34:31;;;;;;;;;;;;;;;20.74;100.00;97898.63;5034681;28;19933;-73
2023/06/07 01:36:57;;;;;;;;;;;;;;;20.68;100.00;97906.16;5034747;28;19926;-73
2023/06/07 01:39:25;;;;;;;;;;;;;;;20.87;100.00;97903.81;5034767;28;19931;-72
2023/06/07 01:41:53;;;;;;;;;;;;;;;20.64;100.00;97904.44;5034898;28;19952;-73
2023/06/07 01:44:20;;;;;;;;;;;;;;;20.61;100.00;97894.25;5034652;28;19929;-73
2023/06/07 01:46:46;;;;;;;;;;;;;;;20.40;100.00;97902.31;5035094;28;19929;-73
2023/06/07 01:49:13;;;;;;;;;;;;;;;20.09;100.00;97902.59;5034733;28;19926;-73
2023/06/07 01:51:40;;;;;;;;;;;;;;;20.42;100.00;97902.81;5045858;28;19937;-72
2023/06/07 01:54:06;;;;;;;;;;;;;;;20.64;100.00;97896.31;5043677;28;19925;-72
2023/06/07 01:56:36;;;;;;;;;;;;;;;20.72;100.00;97892.75;5048669;28;19932;-73
2023/06/07 01:59:09;;;;;;;;;;;;;;;20.76;100.00;97899.91;5050402;28;19932;-72
2023/06/07 02:01:41;;;;;;;;;;;;;;;20.86;100.00;97896.78;5046960;28;19925;-72
2023/06/07 02:04:11;;;;;;;;;;;;;;;20.90;100.00;97891.50;5047129;28;19942;-72
2023/06/07 02:06:40;;;;;;;;;;;;;;;20.85;100.00;97889.00;5050039;28;20347;-72
2023/06/07 02:09:07;;;;;;;;;;;;;;;20.60;100.00;97898.88;5049969;28;19932;-72
2023/06/07 02:11:34;;;;;;;;;;;;;;;20.64;100.00;97902.50;5045418;28;19925;-73
2023/06/07 02:14:01;;;;;;;;;;;;;;;20.72;100.00;97901.69;5046598;28;19925;-72
2023/06/07 02:16:35;;;;;;;;;;;;;;;20.89;100.00;97906.19;5049615;28;20230;-72
2023/06/07 02:19:04;;;;;;;;;;;;;;;20.86;100.00;97904.13;5048697;28;19921;-72
2023/06/07 02:21:31;;;;;;;;;;;;;;;20.79;100.00;97896.53;5050035;28;19929;-72
2023/06/07 02:23:57;;;;;;;;;;;;;;;20.83;100.00;97902.88;5046248;28;19925;-72
2023/06/07 02:26:24;;;;;;;;;;;;;;;20.79;100.00;97903.88;5048875;28;19951;-73
2023/06/07 02:28:50;;;;;;;;;;;;;;;20.78;100.00;97899.56;5049000;28;19940;-73
2023/06/07 02:31:20;;;;;;;;;;;;;;;20.84;100.00;97906.38;5048897;28;19925;-73
2023/06/07 02:33:48;;;;;;;;;;;;;;;20.76;100.00;97912.69;5045771;28;19929;-72
2023/06/07 02:36:14;;;;;;;;;;;;;;;20.85;100.00;97908.78;5047931;28;19948;-72
2023/06/07 02:38:41;;;;;;;;;;;;;;;20.79;100.00;97901.16;5050035;28;19932;-72
2023/06/07 02:41:07;;;;;;;;;;;;;;;20.67;100.00;97903.78;5049254;28;19925;-72
2023/06/07 02:43:34;;;;;;;;;;;;;;;20.57;100.00;97901.44;5044688;28;19925;-72
2023/06/07 02:46:00;;;;;;;;;;;;;;;20.67;100.00;97903.78;5045013;28;19925;-72
2023/06/07 02:48:26;;;;;;;;;;;;;;;20.55;100.00;97907.19;5047713;28;19971;-72
2023/06/07 02:50:54;;;;;;;;;;;;;;;20.68;100.00;97899.94;5053462;28;19921;-72
2023/06/07 02:53:21;;;;;;;;;;;;;;;20.57;100.00;97898.75;5047063;28;19925;-72
2023/06/07 02:55:47;;;;;;;;;;;;;;;20.48;100.00;97898.78;5045714;28;19932;-72
2023/06/07 02:58:14;;;;;;;;;;;;;;;20.33;100.00;97899.34;5046875;28;19926;-72
2023/06/07 03:00:40;;;;;;;;;;;;;;;20.44;100.00;97900.56;5048930;28;20382;-72
2023/06/07 03:03:06;;;;;;;;;;;;;;;20.13;100.00;97911.66;5047739;28;19952;-73
2023/06/07 03:05:33;;;;;;;;;;;;;;;20.29;100.00;97901.91;5045675;28;19926;-72
2023/06/07 03:08:01;;;;;;;;;;;;;;;20.26;100.00;97901.78;5044783;28;19940;-73
2023/06/07 03:10:28;;;;;;;;;;;;;;;19.88;100.00;97913.34;5048564;28;19921;-72
2023/06/07 03:12:54;;;;;;;;;;;;;;;19.56;100.00;97913.09;5047700;28;19980;-72
2023/06/07 03:15:20;;;;;;;;;;;;;;;19.63;100.00;97911.47;5046657;28;19925;-72
2023/06/07 03:17:47;;;;;;;;;;;;;;;19.93;100.00;97912.34;5045606;28;19933;-72
2023/06/07 03:20:13;;;;;;;;;;;;;;;19.97;100.00;97913.31;5050278;28;19947;-72
2023/06/07 03:22:40;;;;;;;;;;;;;;;20.02;100.00;97915.88;5048731;28;19933;-72
2023/06/07 03:25:08;;;;;;;;;;;;;;;20.19;100.00;97912.28;5048318;28;19933;-72
2023/06/07 03:27:35;;;;;;;;;;;;;;;20.14;100.00;97924.13;5045397;28;19925;-72
2023/06/07 03:30:01;;;;;;;;;;;;;;;20.07;100.00;97923.81;5045670;28;19926;-72
2023/06/07 03:32:28;;;;;;;;;;;;;;;20.28;100.00;97919.28;5050463;28;19928;-72
2023/06/07 03:34:54;;;;;;;;;;;;;;;20.32;100.00;97925.66;5050014;28;19925;-72
2023/06/07 03:37:20;;;;;;;;;;;;;;;20.19;100.00;97920.41;5047315;28;19925;-72
2023/06/07 03:39:46;;;;;;;;;;;;;;;19.68;100.00;97922.13;5044914;28;19929;-72
2023/06/07 03:42:14;;;;;;;;;;;;;;;19.64;100.00;97923.13;5045714;28;20311;-72
2023/06/07 03:44:41;;;;;;;;;;;;;;;19.66;100.00;97918.16;5047995;28;19925;-72
2023/06/07 03:47:07;;;;;;;;;;;;;;;19.83;100.00;97918.16;5046606;28;19932;-72
2023/06/07 03:49:33;;;;;;;;;;;;;;;20.10;100.00;97927.78;5044692;28;19932;-72
2023/06/07 03:52:00;;;;;;;;;;;;;;;19.73;100.00;97930.13;5048404;28;19930;-72
2023/06/07 03:54:26;;;;;;;;;;;;;;;19.81;100.00;97923.06;5047683;28;19925;-72
2023/06/07 03:56:52;;;;;;;;;;;;;;;19.79;100.00;97928.84;5046788;28;19925;-72
2023/06/07 03:59:20;;;;;;;;;;;;;;;20.02;100.00;97929.44;5045027;28;19925;-72
2023/06/07 04:01:48;;;;;;;;;;;;;;;20.07;100.00;97929.25;5044440;28;19929;-72
2023/06/07 04:04:14;;;;;;;;;;;;;;;20.00;100.00;97934.34;5045661;28;19925;-72
2023/06/07 04:06:41;;;;;;;;;;;;;;;19.86;100.00;97934.56;5047709;28;19932;-72
2023/06/07 04:09:08;;;;;;;;;;;;;;;19.47;100.00;97940.16;5047380;28;20004;-72
2023/06/07 04:11:34;;;;;;;;;;;;;;;19.59;100.00;97934.13;5042944;28;19925;-72
2023/06/07 04:14:00;;;;;;;;;;;;;;;19.98;100.00;97931.19;5043108;28;19972;-72
2023/06/07 04:16:29;;;;;;;;;;;;;;;19.80;100.00;97930.44;5047276;28;19933;-73
2023/06/07 04:18:55;;;;;;;;;;;;;;;20.00;100.00;97936.25;5047201;28;19925;-72
2023/06/07 04:21:22;;;;;;;;;;;;;;;20.10;100.00;97949.47;5048373;28;19921;-72
2023/06/07 04:23:48;;;;;;;;;;;;;;;19.75;100.00;97944.13;5043171;28;19929;-72
2023/06/07 04:26:18;;;;;;;;;;;;;;;19.36;100.00;97936.97;5045339;28;19925;-72
2023/06/07 04:28:45;;;;;;;;;;;;;;;19.38;100.00;97942.06;5047419;28;19925;-72
2023/06/07 04:31:12;;;;;;;;;;;;;;;19.75;100.00;97943.31;5046239;28;19928;-72
2023/06/07 04:33:41;;;;;;;;;;;;;;;19.92;100.00;97941.41;5042566;28;19925;-72
2023/06/07 04:36:10;;;;;;;;;;;;;;;19.80;100.00;97940.47;5044240;28;19932;-72
2023/06/07 04:38:36;;;;;;;;;;;;;;;19.75;100.00;97944.13;5047475;28;19932;-72
2023/06/07 04:41:06;;;;;;;;;;;;;;;19.44;100.00;97942.72;5047400;28;19948;-72
2023/06/07 04:43:36;;;;;;;;;;;;;;;19.19;100.00;97947.78;5043726;28;19941;-72
2023/06/07 04:46:02;;;;;;;;;;;;;;;19.47;100.00;97947.50;5042761;28;19925;-72
2023/06/07 04:48:31;;;;;;;;;;;;;;;19.61;100.00;97948.13;5047364;28;19925;-73
2023/06/07 04:51:03;;;;;;;;;;;;;;;19.40;100.00;97946.06;5051018;28;19929;-73
2023/06/07 04:53:34;;;;;;;;;;;;;;;19.21;100.00;97950.19;5043614;28;19925;-72
2023/06/07 04:56:00;;;;;;;;;;;;;;;19.40;100.00;97948.78;5043050;28;19945;-72
2023/06/07 04:58:27;;;;;;;;;;;;;;;19.22;100.00;97952.56;5046351;28;19932;-72
2023/06/07 05:00:56;;;;;;;;;;;;;;;19.34;100.00;97960.09;5046512;28;19925;-72
2023/06/07 05:03:24;;;;;;;;;;;;;;;19.74;100.00;97950.69;5044243;28;19944;-72
2023/06/07 05:05:51;;;;;;;;;;;;;;;19.72;100.00;97954.81;5043132;28;20404;-72
2023/06/07 05:08:19;;;;;;;;;;;;;;;19.91;100.00;97952.56;5044764;28;19925;-72
2023/06/07 05:10:45;;;;;;;;;;;;;;;20.00;100.00;97953.31;5045522;28;19980;-72
2023/06/07 05:13:11;;;;;;;;;;;;;;;19.99;100.00;97965.31;5045652;28;19925;-72
2023/06/07 05:15:39;;;;;;;;;;;;;;;20.23;100.00;97960.13;5043483;28;19932;-72
2023/06/07 05:18:07;;;;;;;;;;;;;;;20.22;100.00;97969.38;5043788;28;19976;-72
2023/06/07 05:20:33;;;;;;;;;;;;;;;19.95;100.00;97961.66;5052567;28;19921;-72
2023/06/07 05:22:59;;;;;;;;;;;;;;;20.02;100.00;97974.72;5046633;28;19925;-72
2023/06/07 05:25:27;;;;;;;;;;;;;;;20.17;100.00;97966.84;5044113;28;19940;-72
2023/06/07 05:27:53;;;;;;;;;;;;;;;20.02;100.00;97972.00;5044201;28;19926;-72
2023/06/07 05:30:20;;;;;;;;;;;;;;;20.05;100.00;97964.03;5047019;28;19922;-72
2023/06/07 05:32:48;;;;;;;;;;;;;;;19.83;100.00;97977.78;5049527;28;19924;-72
2023/06/07 05:35:14;;;;;;;;;;;;;;;19.91;100.00;97961.50;5046290;28;19925;-72
2023/06/07 05:37:41;;;;;;;;;;;;;;;20.09;100.00;97969.56;5043893;28;20014;-72
2023/06/07 05:40:08;;;;;;;;;;;;;;;20.53;100.00;97962.91;5044022;28;19921;-72
2023/06/07 05:42:38;;;;;;;;;;;;;;;20.54;100.00;97976.16;5046232;28;19936;-72
2023/06/07 05:45:05;;;;;;;;;;;;;;;20.65;100.00;97965.72;5046214;28;19925;-72
2023/06/07 05:47:31;;;;;;;;;;;;;;;20.52;100.00;97977.63;5034336;28;19936;-72
2023/06/07 05:49:58;;;;;;;;;;;;;;;20.52;100.00;97972.19;5037363;28;19925;-72
2023/06/07 05:52:24;;;;;;;;;;;;;;;20.77;100.00;97969.34;5046079;28;19925;-72
2023/06/07 05:54:54;;;;;;;;;;;;;;;20.76;100.00;97975.91;5045885;28;19933;-72
2023/06/07 05:57:20;;;;;;;;;;;;;;;20.75;100.00;97970.78;5042705;28;19925;-72
2023/06/07 05:59:48;;;;;;;;;;;;;;;20.92;100.00;97970.72;5042554;28;19984;-72
2023/06/07 06:02:16;;;;;;;;;;;;;;;21.01;100.00;97971.44;5043797;28;19933;-72
2023/06/07 06:04:43;;;;;;;;;;;;;;;20.94;100.00;97973.88;5046248;28;19935;-72
2023/06/07 06:07:10;;;;;;;;;;;;;;;21.04;100.00;97965.38;5045274;28;19925;-72
2023/06/07 06:09:36;;;;;;;;;;;;;;;21.24;100.00;97964.59;5042624;28;19933;-72
2023/06/07 06:12:03;;;;;;;;;;;;;;;21.55;100.00;97972.34;5042523;28;19929;-72
2023/06/07 06:14:29;;;;;;;;;;;;;;;21.62;100.00;97977.25;5045788;28;19925;-72
2023/06/07 06:16:57;;;;;;;;;;;;;;;21.83;100.00;97973.38;5046196;28;19925;-72
2023/06/07 06:19:25;;;;;;;;;;;;;;;22.07;100.00;97972.69;5043506;28;19929;-72
2023/06/07 06:21:51;;;;;;;;;;;;;;;21.97;100.00;97973.91;5045322;28;19937;-72
2023/06/07 06:24:17;;;;;;;;;;;;;;;22.01;100.00;97974.03;5043844;28;19926;-72
2023/06/07 06:26:44;;;;;;;;;;;;;;;22.08;100.00;97974.28;5045880;28;19925;-72
2023/06/07 06:29:10;;;;;;;;;;;;;;;22.29;100.00;97983.16;5044013;28;19925;-72
2023/06/07 06:31:37;;;;;;;;;;;;;;;22.04;100.00;97982.31;5040952;28;19925;-72
2023/06/07 06:34:05;;;;;;;;;;;;;;;22.26;100.00;97977.59;5042111;28;20259;-72
2023/06/07 06:36:32;;;;;;;;;;;;;;;22.34;100.00;97974.81;5034047;28;19937;-72
2023/06/07 06:38:59;;;;;;;;;;;;;;;22.44;100.00;97987.94;5033942;28;19925;-72
2023/06/07 06:41:25;;;;;;;;;;;;;;;22.63;100.00;97986.59;5033665;28;19926;-72
2023/06/07 06:43:51;;;;;;;;;;;;;;;22.75;100.00;97986.66;5036103;28;19925;-72
2023/06/07 06:46:18;;;;;;;;;;;;;;;22.65;100.00;97987.91;5037551;28;19925;-72
2023/06/07 06:48:45;;;;;;;;;;;;;;;22.79;100.00;97987.56;5037755;28;19945;-72
2023/06/07 06:51:12;;;;;;;;;;;;;;;22.88;100.00;97980.88;5056787;28;19925;-72
2023/06/07 06:53:39;;;;;;;;;;;;;;;23.14;100.00;97977.78;5045724;28;19980;-72
2023/06/07 06:56:06;;;;;;;;;;;;;;;23.12;100.00;97983.56;5044656;28;20207;-72
2023/06/07 06:58:34;;;;;;;;;;;;;;;23.24;100.00;97987.44;5049225;28;19922;-72
2023/06/07 07:01:01;;;;;;;;;;;;;;;23.10;100.00;97976.88;5049677;28;19932;-72
2023/06/07 07:03:27;;;;;;;;;;;;;;;23.34;100.00;97992.38;5046212;28;19925;-72
2023/06/07 07:05:54;;;;;;;;;;;;;;;23.33;100.00;97991.59;5045670;28;19936;-72
2023/06/07 07:08:21;;;;;;;;;;;;;;;23.12;100.00;97990.94;5046212;28;19925;-73
2023/06/07 07:10:48;;;;;;;;;;;;;;;23.22;100.00;97993.19;5049018;28;19921;-73
2023/06/07 07:13:15;;;;;;;;;;;;;;;23.51;100.00;97992.16;5047887;28;19932;-72
2023/06/07 07:15:41;;;;;;;;;;;;;;;23.59;100.00;97989.28;5045707;28;19948;-72
2023/06/07 07:18:08;;;;;;;;;;;;;;;23.57;100.00;97991.56;5045960;28;19925;-72
2023/06/07 07:20:35;;;;;;;;;;;;;;;23.24;100.00;97993.63;5052961;28;19925;-72
2023/06/07 07:23:03;;;;;;;;;;;;;;;22.99;100.00;97992.09;5047982;28;19925;-72
2023/06/07 07:25:30;;;;;;;;;;;;;;;23.04;100.00;97989.94;5045939;28;19925;-72
2023/06/07 07:27:57;;;;;;;;;;;;;;;23.34;100.00;97987.72;5045589;28;19932;-72
2023/06/07 07:30:23;;;;;;;;;;;;;;;23.55;100.00;97988.38;5047724;28;19925;-73
2023/06/07 07:32:49;;;;;;;;;;;;;;;23.57;100.00;97994.31;5048545;28;19925;-72
2023/06/07 07:35:16;;;;;;;;;;;;;;;23.54;100.00;97999.66;5047431;28;20000;-73
2023/06/07 07:37:44;;;;;;;;;;;;;;;23.62;100.00;97998.69;5045177;28;19956;-73
2023/06/07 07:40:12;;;;;;;;;;;;;;;23.66;100.00;97977.78;5045617;28;19921;-73
2023/06/07 07:42:39;;;;;;;;;;;;;;;23.93;100.00;97979.72;5048311;28;19925;-72
2023/06/07 07:45:06;;;;;;;;;;;;;;;23.54;100.00;97989.53;5048428;28;19976;-73
2023/06/07 07:47:33;;;;;;;;;;;;;;;23.78;100.00;97982.41;5044718;28;19936;-73
2023/06/07 07:50:00;;;;;;;;;;;;;;;23.69;100.00;97977.09;5047836;28;19945;-73
2023/06/07 07:52:26;;;;;;;;;;;;;;;23.51;100.00;97981.25;5048588;28;19929;-73
2023/06/07 07:54:53;;;;;;;;;;;;;;;23.82;100.00;97972.38;5047962;28;19936;-73
2023/06/07 07:57:20;;;;;;;;;;;;;;;24.06;100.00;97973.06;5045553;28;19925;-72
2023/06/07 07:59:47;;;;;;;;;;;;;;;24.21;100.00;97977.00;5045199;28;19965;-72
2023/06/07 08:02:14;;;;;;;;;;;;;;;24.28;100.00;97977.19;5045965;28;19926;-72
2023/06/07 08:04:40;;;;;;;;;;;;;;;24.30;100.00;97966.69;5050642;28;19924;-73
2023/06/07 08:07:07;;;;;;;;;;;;;;;24.40;100.00;97976.31;5050625;28;20374;-73
2023/06/07 08:09:33;;;;;;;;;;;;;;;23.94;100.00;97972.34;5047800;28;20073;-73
2023/06/07 08:11:59;;;;;;;;;;;;;;;23.73;100.00;97966.28;5044895;28;19926;-73
2023/06/07 08:14:26;;;;;;;;;;;;;;;23.82;100.00;97965.00;5046792;28;19936;-73
2023/06/07 08:16:53;;;;;;;;;;;;;;;23.64;100.00;97967.22;5047596;28;19925;-74
2023/06/07 08:19:20;;;;;;;;;;;;;;;23.66;100.00;97969.63;5044383;28;19925;-73
2023/06/07 08:21:47;;;;;;;;;;;;;;;24.06;100.00;97969.53;5046803;28;19940;-73
2023/06/07 08:24:13;;;;;;;;;;;;;;;24.42;100.00;97966.59;5044757;28;19953;-73
2023/06/07 08:26:40;;;;;;;;;;;;;;;24.56;100.00;97968.91;5047420;28;19925;-73
2023/06/07 08:29:06;;;;;;;;;;;;;;;24.14;100.00;97963.16;5047548;28;19925;-72
2023/06/07 08:31:33;;;;;;;;;;;;;;;23.87;100.00;97972.94;5043885;28;20048;-72
2023/06/07 08:34:01;;;;;;;;;;;;;;;24.20;100.00;97961.78;5043860;28;19925;-72
2023/06/07 08:36:28;;;;;;;;;;;;;;;24.71;100.00;97957.19;5046538;28;19936;-72
2023/06/07 08:38:55;;;;;;;;;;;;;;;24.78;100.00;97968.28;5047088;28;19968;-72
2023/06/07 08:41:21;;;;;;;;;;;;;;;24.88;100.00;97958.78;5043729;28;19928;-72
2023/06/07 08:43:49;;;;;;;;;;;;;;;24.31;94.63;97957.38;5043450;28;20424;-73
2023/06/07 08:46:16;;;;;;;;;;;;;;;24.02;96.68;97957.72;5043825;28;19925;-73
2023/06/07 08:48:43;;;;;;;;;;;;;;;24.17;98.79;97957.00;5046795;28;19921;-73
2023/06/07 08:51:11;;;;;;;;;;;;;;;23.96;99.40;97961.84;5050434;28;19933;-72
2023/06/07 08:53:41;;;;;;;;;;;;;;;23.84;99.17;97962.72;5043627;28;19921;-74
2023/06/07 08:56:08;;;;;;;;;;;;;;;23.21;100.00;97958.91;5043905;28;19926;-73
2023/06/07 08:58:35;;;;;;;;;;;;;;;23.00;100.00;97964.50;5046743;28;19937;-73
2023/06/07 09:01:02;;;;;;;;;;;;;;;22.69;100.00;97966.22;5046868;28;19925;-73
2023/06/07 09:03:28;;;;;;;;;;;;;;;23.02;100.00;97969.63;5044295;28;19993;-73
2023/06/07 09:05:55;;;;;;;;;;;;;;;22.97;100.00;97962.47;5042654;28;20208;-72
2023/06/07 09:08:23;;;;;;;;;;;;;;;23.01;100.00;97962.59;5045028;28;19925;-73
2023/06/07 09:10:49;;;;;;;;;;;;;;;23.03;100.00;97963.03;5046489;28;19932;-73
2023/06/07 09:13:19;;;;;;;;;;;;;;;22.88;100.00;97953.63;5045627;28;19925;-72
2023/06/07 09:15:48;;;;;;;;;;;;;;;22.90;100.00;97958.75;5043172;28;19933;-72
2023/06/07 09:18:14;;;;;;;;;;;;;;;23.31;99.82;97954.91;5042993;28;19926;-72
2023/06/07 09:20:40;;;;;;;;;;;;;;;23.83;97.80;97946.72;5050257;28;19936;-73
2023/06/07 09:23:09;;;;;;;;;;;;;;;24.56;92.52;97961.53;5046330;28;19940;-72
2023/06/07 09:25:37;;;;;;;;;;;;;;;24.85;88.15;97956.78;5042794;28;19926;-73
2023/06/07 09:28:04;;;;;;;;;;;;;;;24.81;83.25;97950.41;5041774;28;19929;-73
2023/06/07 09:30:30;;;;;;;;;;;;;;;24.16;78.72;97952.69;5046125;28;19936;-72
2023/06/07 09:32:57;;;;;;;;;;;;;;;24.07;81.26;97950.09;5046135;28;19925;-72
2023/06/07 09:35:25;;;;;;;;;;;;;;;24.11;79.02;97951.00;5044160;28;19929;-72
2023/06/07 09:37:52;;;;;;;;;;;;;;;24.26;77.23;97954.91;5043087;28;19925;-72
2023/06/07 09:40:19;;;;;;;;;;;;;;;24.21;73.71;97948.91;5045656;28;19929;-72
2023/06/07 09:42:55;;;;;;;;;;;;;;;24.68;77.76;97953.22;5047878;28;19925;-71
2023/06/07 09:45:22;;;;;;;;;;;;;;;24.90;67.79;97948.28;5043262;28;19932;-72
2023/06/07 09:47:48;;;;;;;;;;;;;;;24.88;65.65;97950.59;5042826;28;19940;-72
2023/06/07 09:50:15;;;;;;;;;;;;;;;25.00;68.45;97939.56;5047951;28;19925;-73
2023/06/07 09:52:41;;;;;;;;;;;;;;;24.96;67.16;97944.13;5045980;28;20479;-72
2023/06/07 09:55:08;;;;;;;;;;;;;;;24.94;64.24;97943.72;5045754;28;19921;-72
2023/06/07 09:57:36;;;;;;;;;;;;;;;24.89;68.38;97943.97;5041813;28;19926;-72
2023/06/07 10:00:13;;;;;;;;;;;;;;;25.40;68.06;97945.53;5041686;28;19929;-72
2023/06/07 10:02:41;;;;;;;;;;;;;;;25.23;63.50;97940.44;5034243;28;19926;-72
2023/06/07 10:05:07;;;;;;;;;;;;;;;24.54;67.50;97952.88;5034203;28;19925;-72
2023/06/07 10:07:35;;;;;;;;;;;;;;;24.17;70.00;97937.88;5034260;28;19936;-72
2023/06/07 10:10:02;;;;;;;;;;;;;;;24.32;69.93;97933.59;5034467;28;19926;-72
2023/06/07 10:12:29;;;;;;;;;;;;;;;24.42;70.85;97936.59;5034387;28;19925;-73
2023/06/07 10:14:56;;;;;;;;;;;;;;;24.29;68.73;97932.38;5034127;28;19937;-72
2023/06/07 10:17:28;;;;;;;;;;;;;;;24.64;71.70;97929.69;5035798;28;19925;-72
2023/06/07 10:19:59;;;;;;;;;;;;;;;25.25;71.00;97932.69;5040574;28;19926;-72
2023/06/07 10:22:27;;;;;;;;;;;;;;;25.30;69.54;97934.34;5049472;28;19933;-72
2023/06/07 10:24:59;;;;;;;;;;;;;;;25.60;67.08;97927.19;5049423;28;20491;-72
2023/06/07 10:27:27;;;;;;;;;;;;;;;25.34;61.34;97924.28;5046952;28;19925;-72
2023/06/07 10:29:59;;;;;;;;;;;;;;;24.96;62.04;97927.75;5046213;28;19929;-72
2023/06/07 10:32:29;;;;;;;;;;;;;;;25.13;64.24;97924.59;5048703;28;19925;-72
2023/06/07 10:34:56;;;;;;;;;;;;;;;25.68;64.99;97926.19;5049663;28;19932;-72
2023/06/07 10:37:23;;;;;;;;;;;;;;;25.50;57.94;97923.06;5047106;28;19925;-73
2023/06/07 10:39:50;;;;;;;;;;;;;;;25.36;61.24;97927.44;5046397;28;19921;-72
2023/06/07 10:42:16;;;;;;;;;;;;;;;25.43;61.71;97924.88;5048248;28;19925;-69
2023/06/07 10:44:43;;;;;;;;;;;;;;;25.80;61.27;97919.75;5048345;28;19921;-69
2023/06/07 10:47:34;;;;;;;;;;;;;;;25.78;57.29;97920.09;5048969;28;19932;-70
2023/06/07 10:50:01;;;;;;;;;;;;;;;25.33;56.55;97917.22;5034018;28;19926;-69
2023/06/07 10:52:28;;;;;;;;;;;;;;;25.18;54.16;97914.19;5049224;28;19928;-69
2023/06/07 10:54:54;;;;;;;;;;;;;;;25.13;53.49;97908.22;5049284;28;20444;-69
2023/06/07 10:57:31;;;;;;;;;;;;;;;25.21;54.09;97912.69;5047192;28;19921;-69
2023/06/07 11:00:12;;;;;;;;;;;;;;;25.30;55.70;97907.00;5046117;28;19948;-69
2023/06/07 11:02:39;;;;;;;;;;;;;;;25.31;54.64;97914.06;5038596;28;19945;-69
2023/06/07 11:05:08;;;;;;;;;;;;;;;25.01;55.66;97906.41;5037721;28;19933;-69
2023/06/07 11:07:41;;;;;;;;;;;;;;;24.86;56.43;97903.72;5041148;28;19936;-69
2023/06/07 11:10:26;;;;;;;;;;;;;;;25.02;56.95;97904.47;5048608;28;19925;-69
2023/06/07 11:12:57;;;;;;;;;;;;;;;25.12;57.17;97898.44;5045313;28;19926;-69
2023/06/07 11:15:27;;;;;;;;;;;;;;;25.21;55.56;97897.09;5047525;28;19926;-69
2023/06/07 11:17:55;;;;;;;;;;;;;;;25.33;56.63;97890.69;5047565;28;19951;-69
2023/06/07 11:20:43;;;;;;;;;;;;;;;25.54;55.52;97891.13;5047542;28;19921;-69
2023/06/07 11:23:27;;;;;;;;;;;;;;;25.47;53.39;97885.50;5048118;28;19925;-69
2023/06/07 11:25:54;;;;;;;;;;;;;;;25.55;53.73;97889.19;5045518;28;19972;-69
2023/06/07 11:28:21;;;;;;;;;;;;;;;25.58;53.34;97886.53;5046799;28;19933;-69
2023/06/07 11:30:48;;;;;;;;;;;;;;;25.59;54.10;97882.63;5048525;28;19932;-69
2023/06/07 11:33:16;;;;;;;;;;;;;;;25.56;54.28;97886.09;5047068;28;19984;-69
2023/06/07 11:35:42;;;;;;;;;;;;;;;25.70;55.56;97889.09;5044817;28;20354;-69
2023/06/07 11:38:09;;;;;;;;;;;;;;;25.98;55.10;97893.50;5045304;28;19933;-69
2023/06/07 11:40:37;;;;;;;;;;;;;;;26.01;52.87;97888.09;5046981;28;19971;-69
2023/06/07 11:43:03;;;;;;;;;;;;;;;25.88;51.51;97883.16;5046957;28;19932;-69
2023/06/07 11:45:31;;;;;;;;;;;;;;;25.65;52.62;97877.69;5045104;28;19926;-69
2023/06/07 11:47:58;;;;;;;;;;;;;;;25.87;55.17;97871.44;5045269;28;19922;-69
2023/06/07 11:50:24;;;;;;;;;;;;;;;25.87;53.37;97882.41;5051623;28;19929;-69
2023/06/07 11:52:52;;;;;;;;;;;;;;;25.90;52.25;97867.19;5048663;28;20005;-69
2023/06/07 11:55:19;;;;;;;;;;;;;;;25.80;51.43;97878.72;5046680;28;19932;-69
2023/06/07 11:57:48;;;;;;;;;;;;;;;25.63;50.48;97872.56;5044709;28;20476;-69
2023/06/07 12:00:15;;;;;;;;;;;;;;;25.70;52.27;97872.69;5045525;28;19930;-69
2023/06/07 12:02:42;;;;;;;;;;;;;;;25.83;52.32;97861.59;5047883;28;19932;-69
2023/06/07 12:05:10;;;;;;;;;;;;;;;25.95;53.63;97862.19;5047519;28;19936;-69
2023/06/07 12:07:38;;;;;;;;;;;;;;;26.01;53.88;97851.75;5044303;28;20001;-69
2023/06/07 12:10:05;;;;;;;;;;;;;;;25.88;51.14;97856.59;5044532;28;19929;-69
2023/06/07 12:12:31;;;;;;;;;;;;;;;25.66;51.96;97849.94;5059488;28;19925;-69
2023/06/07 12:15:03;;;;;;;;;;;;;;;25.87;53.29;97849.56;5042931;28;19928;-69
2023/06/07 12:17:34;;;;;;;;;;;;;;;25.92;52.12;97851.19;5046192;28;19931;-69
2023/06/07 12:20:08;;;;;;;;;;;;;;;26.07;53.41;97837.38;5046533;28;20259;-69
2023/06/07 12:22:35;;;;;;;;;;;;;;;26.18;53.48;97834.88;5043902;28;19940;-69
2023/06/07 12:25:07;;;;;;;;;;;;;;;25.99;52.33;97829.44;5043760;28;19925;-69
2023/06/07 12:27:34;;;;;;;;;;;;;;;25.91;53.08;97833.19;5043799;28;19925;-69
2023/06/07 12:30:00;;;;;;;;;;;;;;;26.21;54.32;97831.41;5043842;28;19933;-69
2023/06/07 12:32:28;;;;;;;;;;;;;;;26.26;53.38;97834.59;5046553;28;19936;-69
2023/06/07 12:34:59;;;;;;;;;;;;;;;26.47;53.38;97827.84;5047169;28;19936;-69
2023/06/07 12:37:25;;;;;;;;;;;;;;;26.54;49.65;97817.81;5044664;28;19925;-69
2023/06/07 12:39:52;;;;;;;;;;;;;;;26.40;48.18;97823.06;5043694;28;19948;-69
2023/06/07 12:42:18;;;;;;;;;;;;;;;26.03;48.79;97827.53;5045269;28;19921;-69